sensor_id;sensor_type;location;lat;lon;timestamp;P1;durP1;ratioP1;P2;durP2;ratioP2
20391;SDS011;10355;53.688;10.078;2022-09-09T03:53:40;18.05;;;10.00;;
20391;SDS011;10355;53.688;10.078;2022-09-09T04:40:21;17.05;;;9.77;;
20391;SDS011;10355;53.688;10.078;2022-09-09T06:46:09;7.80;;;4.10;;
20391;SDS011;10355;53.688;10.078;2022-09-09T06:52:37;5.43;;;3.65;;
20391;SDS011;10355;53.688;10.078;2022-09-09T07:08:11;5.35;;;3.45;;
20391;SDS011;10355;53.688;10.078;2022-09-09T07:10:54;6.70;;;3.55;;
20391;SDS011;10355;53.688;10.078;2022-09-09T07:13:44;7.00;;;4.22;;
20391;SDS011;10355;53.688;10.078;2022-09-09T07:16:27;8.40;;;3.78;;
20391;SDS011;10355;53.688;10.078;2022-09-09T07:19:12;7.78;;;3.67;;
20391;SDS011;10355;53.688;10.078;2022-09-09T07:21:56;6.22;;;3.55;;
20391;SDS011;10355;53.688;10.078;2022-09-09T07:24:40;9.77;;;3.65;;
20391;SDS011;10355;53.688;10.078;2022-09-09T07:27:26;5.85;;;3.55;;
20391;SDS011;10355;53.688;10.078;2022-09-09T07:30:10;4.10;;;3.30;;
20391;SDS011;10355;53.688;10.078;2022-09-09T07:33:01;5.40;;;3.40;;
20391;SDS011;10355;53.688;10.078;2022-09-09T07:35:45;4.20;;;3.30;;
20391;SDS011;10355;53.688;10.078;2022-09-09T07:38:28;5.50;;;3.83;;
20391;SDS011;10355;53.688;10.078;2022-09-09T07:41:14;5.03;;;3.80;;
20391;SDS011;10355;53.688;10.078;2022-09-09T07:43:58;4.88;;;3.67;;
20391;SDS011;10355;53.688;10.078;2022-09-09T07:46:41;5.85;;;3.42;;
20391;SDS011;10355;53.688;10.078;2022-09-09T07:49:31;5.72;;;3.38;;
20391;SDS011;10355;53.688;10.078;2022-09-09T07:52:16;5.85;;;3.20;;
20391;SDS011;10355;53.688;10.078;2022-09-09T07:55:06;8.57;;;3.42;;
20391;SDS011;10355;53.688;10.078;2022-09-09T07:57:50;5.38;;;2.92;;
20391;SDS011;10355;53.688;10.078;2022-09-09T08:00:33;4.38;;;2.97;;
20391;SDS011;10355;53.688;10.078;2022-09-09T08:03:16;6.93;;;3.40;;
20391;SDS011;10355;53.688;10.078;2022-09-09T08:06:00;6.10;;;3.17;;
20391;SDS011;10355;53.688;10.078;2022-09-09T08:08:44;4.70;;;3.20;;
20391;SDS011;10355;53.688;10.078;2022-09-09T08:11:27;6.28;;;3.40;;
20391;SDS011;10355;53.688;10.078;2022-09-09T08:14:11;4.38;;;2.92;;
20391;SDS011;10355;53.688;10.078;2022-09-09T08:16:55;4.13;;;2.83;;
20391;SDS011;10355;53.688;10.078;2022-09-09T08:19:41;5.90;;;3.25;;
20391;SDS011;10355;53.688;10.078;2022-09-09T08:22:28;6.95;;;2.90;;
20391;SDS011;10355;53.688;10.078;2022-09-09T08:25:11;7.03;;;3.00;;
20391;SDS011;10355;53.688;10.078;2022-09-09T08:27:55;5.22;;;3.00;;
20391;SDS011;10355;53.688;10.078;2022-09-09T08:30:39;5.47;;;3.03;;
20391;SDS011;10355;53.688;10.078;2022-09-09T08:33:22;5.22;;;2.83;;
20391;SDS011;10355;53.688;10.078;2022-09-09T08:36:08;5.38;;;2.97;;
20391;SDS011;10355;53.688;10.078;2022-09-09T08:38:54;4.18;;;2.83;;
20391;SDS011;10355;53.688;10.078;2022-09-09T08:41:43;3.63;;;2.78;;
20391;SDS011;10355;53.688;10.078;2022-09-09T08:44:30;8.07;;;2.97;;
20391;SDS011;10355;53.688;10.078;2022-09-09T08:47:18;6.72;;;3.28;;
20391;SDS011;10355;53.688;10.078;2022-09-09T08:50:11;4.03;;;2.45;;
20391;SDS011;10355;53.688;10.078;2022-09-09T08:52:57;4.72;;;2.38;;
20391;SDS011;10355;53.688;10.078;2022-09-09T08:55:45;6.82;;;2.80;;
20391;SDS011;10355;53.688;10.078;2022-09-09T08:58:30;7.00;;;3.10;;
20391;SDS011;10355;53.688;10.078;2022-09-09T09:01:19;6.70;;;2.70;;
20391;SDS011;10355;53.688;10.078;2022-09-09T09:04:17;4.65;;;2.50;;
20391;SDS011;10355;53.688;10.078;2022-09-09T09:07:04;4.85;;;2.50;;
20391;SDS011;10355;53.688;10.078;2022-09-09T09:09:53;5.22;;;2.42;;
20391;SDS011;10355;53.688;10.078;2022-09-09T09:12:41;5.78;;;2.30;;
20391;SDS011;10355;53.688;10.078;2022-09-09T09:15:30;3.97;;;2.47;;
20391;SDS011;10355;53.688;10.078;2022-09-09T09:18:14;4.00;;;2.20;;
20391;SDS011;10355;53.688;10.078;2022-09-09T09:21:02;3.13;;;2.22;;
20391;SDS011;10355;53.688;10.078;2022-09-09T09:23:49;3.90;;;2.08;;
20391;SDS011;10355;53.688;10.078;2022-09-09T09:26:36;3.15;;;1.88;;
20391;SDS011;10355;53.688;10.078;2022-09-09T09:29:23;3.33;;;2.25;;
20391;SDS011;10355;53.688;10.078;2022-09-09T09:32:07;3.70;;;2.22;;
20391;SDS011;10355;53.688;10.078;2022-09-09T09:34:53;7.20;;;2.80;;
20391;SDS011;10355;53.688;10.078;2022-09-09T09:37:39;4.18;;;2.22;;
20391;SDS011;10355;53.688;10.078;2022-09-09T09:40:50;3.85;;;2.05;;
20391;SDS011;10355;53.688;10.078;2022-09-09T09:43:34;2.55;;;2.03;;
20391;SDS011;10355;53.688;10.078;2022-09-09T09:46:23;6.43;;;2.58;;
20391;SDS011;10355;53.688;10.078;2022-09-09T09:49:11;2.75;;;1.90;;
20391;SDS011;10355;53.688;10.078;2022-09-09T09:51:59;3.42;;;2.00;;
20391;SDS011;10355;53.688;10.078;2022-09-09T09:54:45;2.90;;;1.80;;
20391;SDS011;10355;53.688;10.078;2022-09-09T09:57:28;5.85;;;2.17;;
20391;SDS011;10355;53.688;10.078;2022-09-09T10:00:16;5.63;;;2.13;;
20391;SDS011;10355;53.688;10.078;2022-09-09T10:03:13;2.33;;;1.70;;
20391;SDS011;10355;53.688;10.078;2022-09-09T10:06:02;3.22;;;1.85;;
20391;SDS011;10355;53.688;10.078;2022-09-09T10:08:45;3.72;;;1.85;;
20391;SDS011;10355;53.688;10.078;2022-09-09T10:11:33;4.15;;;2.08;;
20391;SDS011;10355;53.688;10.078;2022-09-09T10:14:19;3.63;;;1.90;;
20391;SDS011;10355;53.688;10.078;2022-09-09T10:17:07;5.47;;;2.22;;
20391;SDS011;10355;53.688;10.078;2022-09-09T10:19:55;4.03;;;1.60;;
20391;SDS011;10355;53.688;10.078;2022-09-09T10:22:43;3.30;;;1.75;;
20391;SDS011;10355;53.688;10.078;2022-09-09T10:25:30;2.55;;;1.50;;
20391;SDS011;10355;53.688;10.078;2022-09-09T10:28:20;3.20;;;1.60;;
20391;SDS011;10355;53.688;10.078;2022-09-09T10:31:08;2.95;;;1.60;;
20391;SDS011;10355;53.688;10.078;2022-09-09T10:33:57;5.18;;;1.67;;
20391;SDS011;10355;53.688;10.078;2022-09-09T10:36:44;3.72;;;1.60;;
20391;SDS011;10355;53.688;10.078;2022-09-09T10:39:32;3.60;;;1.58;;
20391;SDS011;10355;53.688;10.078;2022-09-09T10:42:23;5.35;;;1.38;;
20391;SDS011;10355;53.688;10.078;2022-09-09T10:45:15;2.45;;;1.10;;
20391;SDS011;10355;53.688;10.078;2022-09-09T10:48:05;1.90;;;1.10;;
20391;SDS011;10355;53.688;10.078;2022-09-09T10:50:53;1.98;;;0.77;;
20391;SDS011;10355;53.688;10.078;2022-09-09T10:53:46;2.08;;;0.90;;
20391;SDS011;10355;53.688;10.078;2022-09-09T10:56:33;1.42;;;0.90;;
20391;SDS011;10355;53.688;10.078;2022-09-09T10:59:18;2.92;;;1.00;;
20391;SDS011;10355;53.688;10.078;2022-09-09T11:02:10;1.58;;;0.82;;
20391;SDS011;10355;53.688;10.078;2022-09-09T11:04:57;1.70;;;0.80;;
20391;SDS011;10355;53.688;10.078;2022-09-09T11:07:42;2.63;;;0.90;;
20391;SDS011;10355;53.688;10.078;2022-09-09T11:10:28;2.20;;;1.10;;
20391;SDS011;10355;53.688;10.078;2022-09-09T11:13:14;2.50;;;1.17;;
20391;SDS011;10355;53.688;10.078;2022-09-09T11:16:00;4.25;;;1.27;;
20391;SDS011;10355;53.688;10.078;2022-09-09T11:18:45;6.10;;;1.10;;
20391;SDS011;10355;53.688;10.078;2022-09-09T11:21:29;2.50;;;0.90;;
20391;SDS011;10355;53.688;10.078;2022-09-09T11:24:14;2.85;;;1.10;;
20391;SDS011;10355;53.688;10.078;2022-09-09T11:26:59;2.97;;;0.80;;
20391;SDS011;10355;53.688;10.078;2022-09-09T11:29:48;3.08;;;1.00;;
20391;SDS011;10355;53.688;10.078;2022-09-09T11:32:43;2.58;;;0.73;;
20391;SDS011;10355;53.688;10.078;2022-09-09T11:35:33;2.65;;;0.80;;
20391;SDS011;10355;53.688;10.078;2022-09-09T11:38:21;2.42;;;0.68;;
20391;SDS011;10355;53.688;10.078;2022-09-09T11:41:07;3.17;;;0.70;;
20391;SDS011;10355;53.688;10.078;2022-09-09T11:43:53;3.00;;;0.77;;
20391;SDS011;10355;53.688;10.078;2022-09-09T11:46:36;1.33;;;0.60;;
20391;SDS011;10355;53.688;10.078;2022-09-09T11:49:26;3.05;;;1.15;;
20391;SDS011;10355;53.688;10.078;2022-09-09T11:52:19;2.63;;;1.00;;
20391;SDS011;10355;53.688;10.078;2022-09-09T11:55:08;3.50;;;1.00;;
20391;SDS011;10355;53.688;10.078;2022-09-09T11:57:56;1.08;;;0.80;;
20391;SDS011;10355;53.688;10.078;2022-09-09T12:00:40;1.48;;;0.90;;
20391;SDS011;10355;53.688;10.078;2022-09-09T12:06:14;5.03;;;0.80;;
20391;SDS011;10355;53.688;10.078;2022-09-09T12:09:05;1.55;;;0.70;;
20391;SDS011;10355;53.688;10.078;2022-09-09T12:11:49;1.30;;;0.80;;
20391;SDS011;10355;53.688;10.078;2022-09-09T12:14:36;2.22;;;0.77;;
20391;SDS011;10355;53.688;10.078;2022-09-09T12:17:20;4.10;;;0.90;;
20391;SDS011;10355;53.688;10.078;2022-09-09T12:20:08;2.47;;;0.90;;
20391;SDS011;10355;53.688;10.078;2022-09-09T12:28:59;2.10;;;0.80;;
20391;SDS011;10355;53.688;10.078;2022-09-09T12:34:49;2.40;;;0.90;;
20391;SDS011;10355;53.688;10.078;2022-09-09T12:37:35;2.10;;;1.02;;
20391;SDS011;10355;53.688;10.078;2022-09-09T12:40:20;3.00;;;0.88;;
20391;SDS011;10355;53.688;10.078;2022-09-09T12:43:15;1.73;;;0.80;;
20391;SDS011;10355;53.688;10.078;2022-09-09T12:46:02;1.35;;;0.75;;
20391;SDS011;10355;53.688;10.078;2022-09-09T12:48:46;2.33;;;0.70;;
20391;SDS011;10355;53.688;10.078;2022-09-09T12:51:30;2.63;;;0.95;;
20391;SDS011;10355;53.688;10.078;2022-09-09T12:54:13;1.88;;;0.82;;
20391;SDS011;10355;53.688;10.078;2022-09-09T12:56:57;1.67;;;0.70;;
20391;SDS011;10355;53.688;10.078;2022-09-09T12:59:41;3.55;;;1.00;;
20391;SDS011;10355;53.688;10.078;2022-09-09T13:02:28;2.42;;;0.80;;
20391;SDS011;10355;53.688;10.078;2022-09-09T13:05:13;1.30;;;0.80;;
20391;SDS011;10355;53.688;10.078;2022-09-09T13:08:01;1.35;;;0.80;;
20391;SDS011;10355;53.688;10.078;2022-09-09T13:10:46;3.03;;;0.93;;
20391;SDS011;10355;53.688;10.078;2022-09-09T13:13:42;3.33;;;0.90;;
20391;SDS011;10355;53.688;10.078;2022-09-09T13:16:26;1.90;;;0.82;;
20391;SDS011;10355;53.688;10.078;2022-09-09T13:19:17;2.22;;;0.75;;
20391;SDS011;10355;53.688;10.078;2022-09-09T13:22:10;2.90;;;0.98;;
20391;SDS011;10355;53.688;10.078;2022-09-09T13:25:02;1.25;;;0.80;;
20391;SDS011;10355;53.688;10.078;2022-09-09T13:27:51;2.90;;;0.93;;
20391;SDS011;10355;53.688;10.078;2022-09-09T13:30:36;1.35;;;0.93;;
20391;SDS011;10355;53.688;10.078;2022-09-09T13:33:22;4.60;;;1.00;;
20391;SDS011;10355;53.688;10.078;2022-09-09T13:36:08;1.95;;;1.10;;
20391;SDS011;10355;53.688;10.078;2022-09-09T13:38:55;3.97;;;1.20;;
20391;SDS011;10355;53.688;10.078;2022-09-09T13:41:41;1.42;;;1.00;;
20391;SDS011;10355;53.688;10.078;2022-09-09T13:44:26;2.55;;;1.08;;
20391;SDS011;10355;53.688;10.078;2022-09-09T13:47:17;2.78;;;1.00;;
20391;SDS011;10355;53.688;10.078;2022-09-09T13:50:09;2.08;;;0.85;;
20391;SDS011;10355;53.688;10.078;2022-09-09T13:52:55;2.05;;;1.10;;
20391;SDS011;10355;53.688;10.078;2022-09-09T13:55:39;2.95;;;1.00;;
20391;SDS011;10355;53.688;10.078;2022-09-09T13:58:23;3.08;;;1.05;;
20391;SDS011;10355;53.688;10.078;2022-09-09T14:01:06;2.08;;;0.98;;
20391;SDS011;10355;53.688;10.078;2022-09-09T14:03:53;2.83;;;0.90;;
20391;SDS011;10355;53.688;10.078;2022-09-09T14:06:37;3.20;;;1.00;;
20391;SDS011;10355;53.688;10.078;2022-09-09T14:09:22;2.28;;;1.05;;
20391;SDS011;10355;53.688;10.078;2022-09-09T14:12:06;2.28;;;1.20;;
20391;SDS011;10355;53.688;10.078;2022-09-09T14:14:51;1.83;;;1.00;;
20391;SDS011;10355;53.688;10.078;2022-09-09T14:17:35;3.97;;;1.25;;
20391;SDS011;10355;53.688;10.078;2022-09-09T14:20:19;4.97;;;1.40;;
20391;SDS011;10355;53.688;10.078;2022-09-09T14:23:05;3.58;;;1.27;;
20391;SDS011;10355;53.688;10.078;2022-09-09T14:25:51;7.10;;;1.30;;
20391;SDS011;10355;53.688;10.078;2022-09-09T14:28:34;3.63;;;1.20;;
20391;SDS011;10355;53.688;10.078;2022-09-09T14:31:38;2.85;;;1.10;;
20391;SDS011;10355;53.688;10.078;2022-09-09T14:34:21;2.92;;;1.30;;
20391;SDS011;10355;53.688;10.078;2022-09-09T14:37:04;5.70;;;1.50;;
20391;SDS011;10355;53.688;10.078;2022-09-09T14:39:48;4.13;;;1.20;;
20391;SDS011;10355;53.688;10.078;2022-09-09T14:42:33;4.13;;;1.48;;
20391;SDS011;10355;53.688;10.078;2022-09-09T14:45:17;2.92;;;1.23;;
20391;SDS011;10355;53.688;10.078;2022-09-09T14:48:01;1.33;;;1.08;;
20391;SDS011;10355;53.688;10.078;2022-09-09T14:50:44;2.15;;;1.00;;
20391;SDS011;10355;53.688;10.078;2022-09-09T14:53:54;1.58;;;0.95;;
20391;SDS011;10355;53.688;10.078;2022-09-09T14:56:38;1.95;;;1.20;;
20391;SDS011;10355;53.688;10.078;2022-09-09T14:59:23;5.10;;;1.10;;
20391;SDS011;10355;53.688;10.078;2022-09-09T15:02:07;4.00;;;1.25;;
20391;SDS011;10355;53.688;10.078;2022-09-09T15:04:51;2.53;;;1.10;;
20391;SDS011;10355;53.688;10.078;2022-09-09T15:07:39;4.45;;;1.08;;
20391;SDS011;10355;53.688;10.078;2022-09-09T15:10:22;6.10;;;1.08;;
20391;SDS011;10355;53.688;10.078;2022-09-09T15:13:05;2.78;;;0.93;;
20391;SDS011;10355;53.688;10.078;2022-09-09T15:15:49;3.05;;;1.05;;
20391;SDS011;10355;53.688;10.078;2022-09-09T15:18:32;2.45;;;1.08;;
20391;SDS011;10355;53.688;10.078;2022-09-09T15:21:21;2.00;;;0.85;;
20391;SDS011;10355;53.688;10.078;2022-09-09T15:24:05;2.30;;;0.95;;
20391;SDS011;10355;53.688;10.078;2022-09-09T15:26:49;2.95;;;1.00;;
20391;SDS011;10355;53.688;10.078;2022-09-09T15:29:33;2.50;;;0.80;;
20391;SDS011;10355;53.688;10.078;2022-09-09T15:32:19;3.17;;;1.02;;
20391;SDS011;10355;53.688;10.078;2022-09-09T15:35:02;4.97;;;1.00;;
20391;SDS011;10355;53.688;10.078;2022-09-09T15:37:45;2.55;;;1.20;;
20391;SDS011;10355;53.688;10.078;2022-09-09T15:40:30;1.52;;;0.82;;
20391;SDS011;10355;53.688;10.078;2022-09-09T15:43:14;2.30;;;0.90;;
20391;SDS011;10355;53.688;10.078;2022-09-09T15:45:58;2.72;;;0.70;;
20391;SDS011;10355;53.688;10.078;2022-09-09T15:48:45;3.00;;;0.98;;
20391;SDS011;10355;53.688;10.078;2022-09-09T15:51:34;1.40;;;0.95;;
20391;SDS011;10355;53.688;10.078;2022-09-09T15:54:24;1.63;;;0.77;;
20391;SDS011;10355;53.688;10.078;2022-09-09T15:57:10;2.38;;;0.90;;
20391;SDS011;10355;53.688;10.078;2022-09-09T15:59:54;5.05;;;1.00;;
20391;SDS011;10355;53.688;10.078;2022-09-09T16:02:37;3.53;;;0.70;;
20391;SDS011;10355;53.688;10.078;2022-09-09T16:05:22;2.47;;;0.70;;
20391;SDS011;10355;53.688;10.078;2022-09-09T16:08:05;2.20;;;0.80;;
20391;SDS011;10355;53.688;10.078;2022-09-09T16:10:48;1.17;;;0.60;;
20391;SDS011;10355;53.688;10.078;2022-09-09T16:13:32;1.48;;;0.75;;
20391;SDS011;10355;53.688;10.078;2022-09-09T16:16:16;2.45;;;0.88;;
20391;SDS011;10355;53.688;10.078;2022-09-09T16:19:02;2.17;;;0.65;;
20391;SDS011;10355;53.688;10.078;2022-09-09T16:21:48;1.52;;;0.73;;
20391;SDS011;10355;53.688;10.078;2022-09-09T16:24:32;2.42;;;0.90;;
20391;SDS011;10355;53.688;10.078;2022-09-09T16:27:15;2.78;;;0.90;;
20391;SDS011;10355;53.688;10.078;2022-09-09T16:30:00;1.83;;;0.80;;
20391;SDS011;10355;53.688;10.078;2022-09-09T16:32:43;1.83;;;0.90;;
20391;SDS011;10355;53.688;10.078;2022-09-09T16:35:27;1.58;;;0.88;;
20391;SDS011;10355;53.688;10.078;2022-09-09T16:38:13;3.33;;;1.10;;
20391;SDS011;10355;53.688;10.078;2022-09-09T16:40:58;3.35;;;1.13;;
20391;SDS011;10355;53.688;10.078;2022-09-09T16:43:41;3.05;;;1.00;;
20391;SDS011;10355;53.688;10.078;2022-09-09T16:46:28;1.17;;;0.90;;
20391;SDS011;10355;53.688;10.078;2022-09-09T16:49:30;6.38;;;1.20;;
20391;SDS011;10355;53.688;10.078;2022-09-09T16:52:51;1.58;;;0.98;;
20391;SDS011;10355;53.688;10.078;2022-09-09T16:55:39;2.20;;;0.98;;
20391;SDS011;10355;53.688;10.078;2022-09-09T16:58:23;3.85;;;0.90;;
20391;SDS011;10355;53.688;10.078;2022-09-09T17:01:07;4.47;;;1.00;;
20391;SDS011;10355;53.688;10.078;2022-09-09T17:03:54;2.35;;;0.93;;
20391;SDS011;10355;53.688;10.078;2022-09-09T17:06:45;1.98;;;0.82;;
20391;SDS011;10355;53.688;10.078;2022-09-09T17:09:29;7.95;;;1.05;;
20391;SDS011;10355;53.688;10.078;2022-09-09T17:12:17;5.05;;;0.95;;
20391;SDS011;10355;53.688;10.078;2022-09-09T17:15:01;3.85;;;0.82;;
20391;SDS011;10355;53.688;10.078;2022-09-09T17:17:56;7.38;;;0.98;;
20391;SDS011;10355;53.688;10.078;2022-09-09T17:20:41;2.83;;;0.75;;
20391;SDS011;10355;53.688;10.078;2022-09-09T17:23:27;3.35;;;0.77;;
20391;SDS011;10355;53.688;10.078;2022-09-09T17:26:15;2.70;;;0.80;;
20391;SDS011;10355;53.688;10.078;2022-09-09T17:29:02;1.65;;;0.85;;
20391;SDS011;10355;53.688;10.078;2022-09-09T17:31:46;1.95;;;0.90;;
20391;SDS011;10355;53.688;10.078;2022-09-09T17:34:31;4.22;;;0.90;;
20391;SDS011;10355;53.688;10.078;2022-09-09T17:37:14;3.13;;;0.90;;
20391;SDS011;10355;53.688;10.078;2022-09-09T17:39:58;2.97;;;0.90;;
20391;SDS011;10355;53.688;10.078;2022-09-09T17:42:44;1.75;;;0.85;;
20391;SDS011;10355;53.688;10.078;2022-09-09T17:45:32;1.00;;;0.70;;
20391;SDS011;10355;53.688;10.078;2022-09-09T17:48:15;2.40;;;0.90;;
20391;SDS011;10355;53.688;10.078;2022-09-09T17:50:59;2.88;;;0.88;;
20391;SDS011;10355;53.688;10.078;2022-09-09T17:53:43;2.38;;;1.10;;
20391;SDS011;10355;53.688;10.078;2022-09-09T17:56:28;2.65;;;0.90;;
20391;SDS011;10355;53.688;10.078;2022-09-09T17:59:13;3.80;;;1.10;;
20391;SDS011;10355;53.688;10.078;2022-09-09T18:01:58;2.85;;;0.90;;
20391;SDS011;10355;53.688;10.078;2022-09-09T18:04:42;2.55;;;0.85;;
20391;SDS011;10355;53.688;10.078;2022-09-09T18:07:26;2.20;;;0.75;;
20391;SDS011;10355;53.688;10.078;2022-09-09T18:10:13;0.90;;;0.73;;
20391;SDS011;10355;53.688;10.078;2022-09-09T18:12:56;2.88;;;0.90;;
20391;SDS011;10355;53.688;10.078;2022-09-09T18:15:43;1.63;;;1.02;;
20391;SDS011;10355;53.688;10.078;2022-09-09T18:18:32;2.33;;;1.23;;
20391;SDS011;10355;53.688;10.078;2022-09-09T18:21:15;1.92;;;0.85;;
20391;SDS011;10355;53.688;10.078;2022-09-09T18:24:05;1.02;;;0.70;;
20391;SDS011;10355;53.688;10.078;2022-09-09T18:26:52;1.35;;;1.00;;
20391;SDS011;10355;53.688;10.078;2022-09-09T18:29:35;2.63;;;0.90;;
20391;SDS011;10355;53.688;10.078;2022-09-09T18:32:21;3.10;;;0.90;;
20391;SDS011;10355;53.688;10.078;2022-09-09T18:35:10;2.95;;;1.00;;
20391;SDS011;10355;53.688;10.078;2022-09-09T18:37:54;1.48;;;1.10;;
20391;SDS011;10355;53.688;10.078;2022-09-09T18:40:38;1.58;;;1.10;;
20391;SDS011;10355;53.688;10.078;2022-09-09T18:43:21;2.25;;;0.93;;
20391;SDS011;10355;53.688;10.078;2022-09-09T18:46:05;2.92;;;1.20;;
20391;SDS011;10355;53.688;10.078;2022-09-09T18:48:49;3.17;;;1.10;;
20391;SDS011;10355;53.688;10.078;2022-09-09T18:51:35;2.13;;;1.20;;
20391;SDS011;10355;53.688;10.078;2022-09-09T18:54:23;2.85;;;1.25;;
20391;SDS011;10355;53.688;10.078;2022-09-09T18:57:06;2.47;;;1.25;;
20391;SDS011;10355;53.688;10.078;2022-09-09T18:59:49;1.98;;;1.20;;
20391;SDS011;10355;53.688;10.078;2022-09-09T19:02:37;2.60;;;1.20;;
20391;SDS011;10355;53.688;10.078;2022-09-09T19:05:21;3.22;;;1.20;;
20391;SDS011;10355;53.688;10.078;2022-09-09T19:08:06;1.75;;;1.40;;
20391;SDS011;10355;53.688;10.078;2022-09-09T19:10:49;2.50;;;1.50;;
20391;SDS011;10355;53.688;10.078;2022-09-09T19:13:33;5.68;;;1.42;;
20391;SDS011;10355;53.688;10.078;2022-09-09T19:16:18;1.58;;;0.98;;
20391;SDS011;10355;53.688;10.078;2022-09-09T19:19:17;5.60;;;1.20;;
20391;SDS011;10355;53.688;10.078;2022-09-09T19:22:04;2.30;;;1.00;;
20391;SDS011;10355;53.688;10.078;2022-09-09T19:24:51;3.45;;;1.15;;
20391;SDS011;10355;53.688;10.078;2022-09-09T19:27:41;3.03;;;0.70;;
20391;SDS011;10355;53.688;10.078;2022-09-09T19:30:27;2.80;;;1.00;;
20391;SDS011;10355;53.688;10.078;2022-09-09T19:33:11;1.20;;;1.00;;
20391;SDS011;10355;53.688;10.078;2022-09-09T19:35:58;1.38;;;0.90;;
20391;SDS011;10355;53.688;10.078;2022-09-09T19:38:42;2.35;;;1.23;;
20391;SDS011;10355;53.688;10.078;2022-09-09T19:41:26;1.35;;;1.00;;
20391;SDS011;10355;53.688;10.078;2022-09-09T19:44:12;2.83;;;1.10;;
20391;SDS011;10355;53.688;10.078;2022-09-09T19:46:56;2.40;;;1.15;;
20391;SDS011;10355;53.688;10.078;2022-09-09T19:49:41;3.45;;;1.20;;
20391;SDS011;10355;53.688;10.078;2022-09-09T19:52:28;3.10;;;1.30;;
20391;SDS011;10355;53.688;10.078;2022-09-09T19:55:11;2.83;;;1.30;;
20391;SDS011;10355;53.688;10.078;2022-09-09T19:57:56;2.65;;;1.20;;
20391;SDS011;10355;53.688;10.078;2022-09-09T20:00:39;1.85;;;1.33;;
20391;SDS011;10355;53.688;10.078;2022-09-09T20:03:22;1.60;;;1.20;;
20391;SDS011;10355;53.688;10.078;2022-09-09T20:06:06;4.35;;;1.55;;
20391;SDS011;10355;53.688;10.078;2022-09-09T20:08:55;2.83;;;1.58;;
20391;SDS011;10355;53.688;10.078;2022-09-09T20:11:38;2.80;;;1.60;;
20391;SDS011;10355;53.688;10.078;2022-09-09T20:14:23;2.03;;;1.40;;
20391;SDS011;10355;53.688;10.078;2022-09-09T20:17:06;2.97;;;1.60;;
20391;SDS011;10355;53.688;10.078;2022-09-09T20:19:50;1.60;;;1.38;;
20391;SDS011;10355;53.688;10.078;2022-09-09T20:22:33;2.15;;;1.50;;
20391;SDS011;10355;53.688;10.078;2022-09-09T20:25:16;3.42;;;1.83;;
20391;SDS011;10355;53.688;10.078;2022-09-09T20:28:00;4.53;;;1.73;;
20391;SDS011;10355;53.688;10.078;2022-09-09T20:30:45;2.50;;;1.70;;
20391;SDS011;10355;53.688;10.078;2022-09-09T20:33:28;2.30;;;1.48;;
20391;SDS011;10355;53.688;10.078;2022-09-09T20:36:16;2.53;;;1.40;;
20391;SDS011;10355;53.688;10.078;2022-09-09T20:39:03;2.28;;;1.48;;
20391;SDS011;10355;53.688;10.078;2022-09-09T20:41:48;4.07;;;1.70;;
20391;SDS011;10355;53.688;10.078;2022-09-09T20:44:31;2.95;;;1.63;;
20391;SDS011;10355;53.688;10.078;2022-09-09T20:47:15;2.92;;;1.60;;
20391;SDS011;10355;53.688;10.078;2022-09-09T20:49:59;3.20;;;1.70;;
20391;SDS011;10355;53.688;10.078;2022-09-09T20:52:42;2.53;;;1.77;;
20391;SDS011;10355;53.688;10.078;2022-09-09T20:55:26;1.85;;;1.60;;
20391;SDS011;10355;53.688;10.078;2022-09-09T20:58:09;4.28;;;1.65;;
20391;SDS011;10355;53.688;10.078;2022-09-09T21:00:52;1.88;;;1.40;;
20391;SDS011;10355;53.688;10.078;2022-09-09T21:03:42;2.00;;;1.50;;
20391;SDS011;10355;53.688;10.078;2022-09-09T21:06:25;3.08;;;1.70;;
20391;SDS011;10355;53.688;10.078;2022-09-09T21:09:09;2.50;;;1.55;;
20391;SDS011;10355;53.688;10.078;2022-09-09T21:11:52;1.65;;;1.33;;
20391;SDS011;10355;53.688;10.078;2022-09-09T21:14:35;3.58;;;1.50;;
20391;SDS011;10355;53.688;10.078;2022-09-09T21:17:18;2.25;;;1.30;;
20391;SDS011;10355;53.688;10.078;2022-09-09T21:20:03;3.63;;;1.50;;
20391;SDS011;10355;53.688;10.078;2022-09-09T21:22:47;2.50;;;1.70;;
20391;SDS011;10355;53.688;10.078;2022-09-09T21:25:30;2.70;;;1.60;;
20391;SDS011;10355;53.688;10.078;2022-09-09T21:28:14;4.38;;;1.50;;
20391;SDS011;10355;53.688;10.078;2022-09-09T21:30:57;1.75;;;1.40;;
20391;SDS011;10355;53.688;10.078;2022-09-09T21:33:41;3.17;;;1.33;;
20391;SDS011;10355;53.688;10.078;2022-09-09T21:36:26;4.68;;;1.67;;
20391;SDS011;10355;53.688;10.078;2022-09-09T21:39:10;2.30;;;1.30;;
20391;SDS011;10355;53.688;10.078;2022-09-09T21:41:53;2.78;;;1.60;;
20391;SDS011;10355;53.688;10.078;2022-09-09T21:44:39;2.70;;;1.20;;
20391;SDS011;10355;53.688;10.078;2022-09-09T21:47:22;4.05;;;1.73;;
20391;SDS011;10355;53.688;10.078;2022-09-09T21:50:05;2.42;;;1.33;;
20391;SDS011;10355;53.688;10.078;2022-09-09T21:52:50;1.33;;;1.23;;
20391;SDS011;10355;53.688;10.078;2022-09-09T21:55:33;6.25;;;1.40;;
20391;SDS011;10355;53.688;10.078;2022-09-09T21:58:17;2.08;;;1.10;;
20391;SDS011;10355;53.688;10.078;2022-09-09T22:01:02;2.78;;;1.20;;
20391;SDS011;10355;53.688;10.078;2022-09-09T22:03:49;3.22;;;1.13;;
20391;SDS011;10355;53.688;10.078;2022-09-09T22:06:32;1.85;;;1.10;;
20391;SDS011;10355;53.688;10.078;2022-09-09T22:09:17;4.13;;;1.20;;
20391;SDS011;10355;53.688;10.078;2022-09-09T22:12:01;1.70;;;1.25;;
20391;SDS011;10355;53.688;10.078;2022-09-09T22:14:44;1.77;;;1.20;;
20391;SDS011;10355;53.688;10.078;2022-09-09T22:17:27;4.10;;;1.10;;
20391;SDS011;10355;53.688;10.078;2022-09-09T22:20:10;1.80;;;1.10;;
20391;SDS011;10355;53.688;10.078;2022-09-09T22:22:54;3.30;;;1.40;;
20391;SDS011;10355;53.688;10.078;2022-09-09T22:25:39;1.48;;;1.10;;
20391;SDS011;10355;53.688;10.078;2022-09-09T22:28:22;2.20;;;1.30;;
20391;SDS011;10355;53.688;10.078;2022-09-09T22:31:05;2.33;;;1.27;;
20391;SDS011;10355;53.688;10.078;2022-09-09T22:33:49;2.08;;;1.40;;
20391;SDS011;10355;53.688;10.078;2022-09-09T22:36:32;2.47;;;0.98;;
20391;SDS011;10355;53.688;10.078;2022-09-09T22:39:15;1.65;;;1.02;;
20391;SDS011;10355;53.688;10.078;2022-09-09T22:42:00;2.70;;;1.17;;
20391;SDS011;10355;53.688;10.078;2022-09-09T22:44:46;1.95;;;0.90;;
20391;SDS011;10355;53.688;10.078;2022-09-09T22:47:30;1.67;;;1.20;;
20391;SDS011;10355;53.688;10.078;2022-09-09T22:50:14;2.50;;;1.10;;
20391;SDS011;10355;53.688;10.078;2022-09-09T22:52:57;1.55;;;1.20;;
20391;SDS011;10355;53.688;10.078;2022-09-09T22:55:40;2.53;;;1.10;;
20391;SDS011;10355;53.688;10.078;2022-09-09T22:58:25;2.03;;;1.23;;
20391;SDS011;10355;53.688;10.078;2022-09-09T23:01:10;1.90;;;1.17;;
20391;SDS011;10355;53.688;10.078;2022-09-09T23:03:56;1.80;;;1.30;;
20391;SDS011;10355;53.688;10.078;2022-09-09T23:06:40;2.55;;;1.02;;
20391;SDS011;10355;53.688;10.078;2022-09-09T23:09:23;1.35;;;1.10;;
20391;SDS011;10355;53.688;10.078;2022-09-09T23:12:06;3.75;;;1.08;;
20391;SDS011;10355;53.688;10.078;2022-09-09T23:14:52;3.28;;;1.17;;
20391;SDS011;10355;53.688;10.078;2022-09-09T23:17:36;2.35;;;1.10;;
20391;SDS011;10355;53.688;10.078;2022-09-09T23:20:19;3.00;;;1.38;;
20391;SDS011;10355;53.688;10.078;2022-09-09T23:23:07;1.33;;;1.20;;
20391;SDS011;10355;53.688;10.078;2022-09-09T23:25:50;1.63;;;1.20;;
20391;SDS011;10355;53.688;10.078;2022-09-09T23:28:33;2.90;;;1.38;;
20391;SDS011;10355;53.688;10.078;2022-09-09T23:31:18;1.30;;;1.02;;